Time;durP1;ratioP1;P1;durP2;ratioP2;P2;SDS_P1;SDS_P2;PMS_P1;PMS_P2;Temp;Humidity;BMP_temperature;BMP_pressure;BME280_temperature;BME280_humidity;BME280_pressure;Samples;Min_cycle;Max_cycle;Signal;HPM_P1;HPM_P2
2022/01/23 00:00:26;;;;;;;41.47;21.42;;;4.40;99.90;;;;;;5065837;28;20079;-74
2022/01/23 00:03:00;;;;;;;47.15;22.60;;;4.40;99.90;;;;;;5096315;28;20554;-74
2022/01/23 00:05:33;;;;;;;43.80;23.95;;;4.40;99.90;;;;;;5083597;28;20387;-74
2022/01/23 00:08:02;;;;;;;47.25;23.98;;;4.30;99.90;;;;;;5063132;28;20075;-75
2022/01/23 00:10:29;;;;;;;46.80;24.40;;;4.30;99.90;;;;;;5091956;28;20063;-75
2022/01/23 00:13:08;;;;;;;42.33;23.83;;;4.40;99.90;;;;;;5084270;28;20051;-75
2022/01/23 00:18:21;;;;;;;36.95;21.48;;;4.40;99.90;;;;;;5095816;28;20918;-76
2022/01/23 00:20:48;;;;;;;47.17;22.25;;;4.40;99.90;;;;;;5063322;28;20064;-74
2022/01/23 00:23:29;;;;;;;41.63;22.92;;;4.30;99.90;;;;;;5056115;28;20090;-75
2022/01/23 00:31:28;;;;;;;47.22;24.27;;;4.40;99.90;;;;;;5070585;28;20471;-74
2022/01/23 00:33:56;;;;;;;44.65;21.58;;;4.40;99.90;;;;;;5077305;28;20043;-74
2022/01/23 00:36:25;;;;;;;40.17;21.42;;;4.30;99.90;;;;;;5085067;28;20044;-75
2022/01/23 00:38:52;;;;;;;44.15;25.40;;;4.30;99.90;;;;;;5081212;28;20070;-75
2022/01/23 00:41:19;;;;;;;47.33;23.90;;;4.30;99.90;;;;;;5067803;28;20438;-75
2022/01/23 00:43:48;;;;;;;46.72;23.33;;;4.30;99.90;;;;;;5083844;28;20596;-75
2022/01/23 00:51:32;;;;;;;47.70;24.02;;;4.30;99.90;;;;;;5067464;28;20048;-74
2022/01/23 00:54:01;;;;;;;52.08;24.00;;;4.30;99.90;;;;;;5050272;28;20488;-73
2022/01/23 00:56:29;;;;;;;39.45;21.05;;;4.30;99.90;;;;;;5082521;28;20072;-74
2022/01/23 00:58:55;;;;;;;34.45;18.63;;;4.30;99.90;;;;;;5062869;28;20575;-73
2022/01/23 01:01:25;;;;;;;35.47;19.27;;;4.20;99.90;;;;;;5056243;28;20072;-74
2022/01/23 01:03:52;;;;;;;34.42;17.55;;;4.10;99.90;;;;;;5068802;28;20159;-73
2022/01/23 01:06:19;;;;;;;33.28;16.52;;;4.10;99.90;;;;;;5063983;28;20097;-74
2022/01/23 01:08:49;;;;;;;27.70;15.20;;;4.00;99.90;;;;;;5070287;28;20080;-74
2022/01/23 01:14:19;;;;;;;30.48;16.83;;;4.00;99.90;;;;;;5043185;28;20094;-73
2022/01/23 01:16:58;;;;;;;34.20;16.48;;;4.00;99.90;;;;;;5023485;28;20075;-74
2022/01/23 01:31:03;;;;;;;31.02;15.13;;;4.10;99.90;;;;;;5055604;28;20052;-74
2022/01/23 01:36:35;;;;;;;28.42;13.95;;;4.10;99.90;;;;;;5062484;28;20048;-75
2022/01/23 01:39:06;;;;;;;25.90;14.25;;;4.00;99.90;;;;;;5047409;28;20459;-74
2022/01/23 01:41:39;;;;;;;31.85;16.33;;;4.10;99.90;;;;;;5042505;28;20048;-74
2022/01/23 01:44:06;;;;;;;28.00;16.95;;;4.10;99.90;;;;;;5043688;28;20045;-74
2022/01/23 01:46:52;;;;;;;34.08;16.73;;;4.20;99.90;;;;;;5061678;28;20044;-74
2022/01/23 01:49:27;;;;;;;32.90;17.70;;;4.30;99.90;;;;;;5026535;28;20147;-74
2022/01/23 01:51:56;;;;;;;34.55;18.38;;;4.30;99.90;;;;;;5043154;28;20110;-74
2022/01/23 01:54:26;;;;;;;36.83;19.25;;;4.30;99.90;;;;;;5043565;28;20051;-74
2022/01/23 01:57:05;;;;;;;45.38;20.08;;;4.30;99.90;;;;;;5054901;28;20028;-75
2022/01/23 02:10:49;;;;;;;43.15;21.17;;;4.30;99.90;;;;;;5004641;28;20075;-74
2022/01/23 02:13:26;;;;;;;42.83;22.65;;;4.20;99.90;;;;;;5035113;28;20407;-74
2022/01/23 02:57:53;;;;;;;54.70;26.58;;;4.20;99.90;;;;;;5065967;28;20063;-74
2022/01/23 03:00:13;;;;;;;63.22;27.83;;;4.20;99.90;;;;;;5063005;28;20059;-74
2022/01/23 03:03:14;;;;;;;57.70;26.48;;;4.20;99.90;;;;;;5019533;28;20174;-75
2022/01/23 03:14:22;;;;;;;58.47;26.05;;;4.20;99.90;;;;;;5047114;28;20418;-76
2022/01/23 03:30:39;;;;;;;30.05;15.73;;;4.00;99.90;;;;;;5078677;28;20354;-76
2022/01/23 03:33:06;;;;;;;24.45;15.20;;;4.00;99.90;;;;;;5057086;28;20053;-76
2022/01/23 03:35:32;;;;;;;34.40;16.42;;;4.00;99.90;;;;;;5082732;28;20048;-76
2022/01/23 03:37:59;;;;;;;31.73;16.35;;;4.00;99.90;;;;;;5080706;28;20083;-76
2022/01/23 03:40:27;;;;;;;31.52;15.52;;;4.00;99.90;;;;;;5062588;28;20133;-75
2022/01/23 03:43:07;;;;;;;38.67;19.70;;;4.00;99.90;;;;;;5046270;28;20051;-75
2022/01/23 03:50:53;;;;;;;41.80;22.48;;;4.00;99.90;;;;;;5042509;28;20584;-75
2022/01/23 03:53:32;;;;;;;44.60;22.92;;;4.00;99.90;;;;;;5044740;28;20071;-75
2022/01/23 03:55:59;;;;;;;44.03;22.55;;;4.10;99.90;;;;;;5045587;28;20375;-75
2022/01/23 03:58:26;;;;;;;41.33;22.55;;;4.00;99.90;;;;;;5046000;28;20317;-75
2022/01/23 04:00:52;;;;;;;47.63;21.52;;;4.00;99.90;;;;;;5046727;28;20041;-75
2022/01/23 04:03:20;;;;;;;43.70;22.15;;;4.10;99.90;;;;;;5071975;28;20045;-75
2022/01/23 04:05:47;;;;;;;41.45;21.95;;;4.10;99.90;;;;;;5051257;28;20060;-75
2022/01/23 04:08:16;;;;;;;47.33;21.75;;;4.10;99.90;;;;;;5045071;28;20049;-75
2022/01/23 04:10:44;;;;;;;39.47;20.83;;;4.20;99.90;;;;;;5044265;28;20052;-75
2022/01/23 04:32:19;;;;;;;23.60;13.35;;;4.20;99.90;;;;;;5061275;28;20072;-76
2022/01/23 04:35:11;;;;;;;22.75;13.07;;;4.20;99.90;;;;;;5029741;28;20578;-75
2022/01/23 04:46:16;;;;;;;25.33;14.50;;;4.20;99.90;;;;;;5044795;28;20151;-75
2022/01/23 04:48:55;;;;;;;31.15;16.08;;;4.10;99.90;;;;;;5056818;28;20506;-75
2022/01/23 04:59:47;;;;;;;;;;;4.10;99.90;;;;;;5063279;28;20094;-75
2022/01/23 05:05:08;;;;;;;32.42;17.38;;;4.00;99.90;;;;;;5049791;28;20044;-74
2022/01/23 05:07:55;;;;;;;37.55;18.25;;;4.00;99.90;;;;;;5043555;28;20048;-75
2022/01/23 05:10:41;;;;;;;30.83;17.10;;;3.90;99.90;;;;;;5060988;28;20060;-75
2022/01/23 05:13:31;;;;;;;30.38;16.33;;;3.80;99.90;;;;;;5044078;28;20147;-75
2022/01/23 05:15:58;;;;;;;31.63;15.98;;;3.80;99.90;;;;;;5043459;28;20048;-75
2022/01/23 05:18:25;;;;;;;35.47;17.80;;;3.80;99.90;;;;;;5043697;28;20304;-75
2022/01/23 05:21:04;;;;;;;33.15;18.05;;;3.90;99.90;;;;;;5063020;28;20183;-75
2022/01/23 05:23:30;;;;;;;35.50;17.80;;;3.80;99.90;;;;;;5064190;28;20056;-75
2022/01/23 05:25:57;;;;;;;30.52;17.27;;;3.80;99.90;;;;;;5081671;28;20087;-74
2022/01/23 05:28:24;;;;;;;30.92;16.38;;;3.80;99.90;;;;;;5063128;28;20060;-75
2022/01/23 05:30:51;;;;;;;33.42;17.73;;;3.90;99.90;;;;;;5063970;28;20476;-75
2022/01/23 05:33:17;;;;;;;30.98;17.08;;;3.90;99.90;;;;;;5073572;28;20105;-75
2022/01/23 05:35:49;;;;;;;30.20;16.13;;;3.90;99.90;;;;;;5064838;28;20134;-75
2022/01/23 05:38:16;;;;;;;32.92;17.90;;;3.80;99.90;;;;;;5057414;28;20071;-74
2022/01/23 05:40:43;;;;;;;33.95;16.23;;;3.80;99.90;;;;;;5045427;28;20055;-75
2022/01/23 05:43:11;;;;;;;30.00;16.25;;;3.80;99.90;;;;;;5026799;28;20113;-75
2022/01/23 05:45:41;;;;;;;24.95;14.02;;;3.80;99.90;;;;;;5060426;28;20502;-75
2022/01/23 05:48:09;;;;;;;24.35;12.55;;;3.70;99.90;;;;;;5062379;28;20271;-75
2022/01/23 05:50:42;;;;;;;23.52;12.48;;;3.50;99.90;;;;;;5073566;28;20137;-75
2022/01/23 05:53:27;;;;;;;26.08;13.52;;;3.50;99.90;;;;;;5081526;28;20066;-75
2022/01/23 05:56:22;;;;;;;26.25;15.20;;;3.50;99.90;;;;;;5063388;28;20054;-75
2022/01/23 05:59:08;;;;;;;;;;;3.50;99.90;;;;;;5082287;28;20079;-74
2022/01/23 06:01:41;;;;;;;28.42;12.82;;;3.60;99.90;;;;;;5051826;28;20031;-75
2022/01/23 06:04:13;;;;;;;23.10;12.65;;;3.60;99.90;;;;;;5056187;28;20070;-74
2022/01/23 06:06:48;;;;;;;23.55;12.63;;;3.60;99.90;;;;;;5031551;28;20110;-73
2022/01/23 06:09:16;;;;;;;24.48;13.30;;;3.50;99.90;;;;;;5053192;28;20052;-74
2022/01/23 06:11:43;;;;;;;25.60;13.48;;;3.50;99.90;;;;;;5028112;28;20082;-73
2022/01/23 06:14:10;;;;;;;25.95;12.82;;;3.40;99.90;;;;;;5061567;28;20183;-73
2022/01/23 06:16:38;;;;;;;22.65;12.13;;;3.40;99.90;;;;;;5041360;28;20048;-74
2022/01/23 06:19:25;;;;;;;24.17;13.82;;;3.40;99.90;;;;;;5034574;28;20541;-74
2022/01/23 06:22:21;;;;;;;30.92;15.23;;;3.40;99.90;;;;;;5022869;28;20049;-74
2022/01/23 06:25:11;;;;;;;27.58;14.35;;;3.50;99.90;;;;;;5064293;28;20060;-74
2022/01/23 06:27:42;;;;;;;27.60;14.52;;;3.30;99.90;;;;;;5043182;28;20071;-74
2022/01/23 06:30:09;;;;;;;34.45;15.13;;;3.30;99.90;;;;;;5042574;28;20260;-73
2022/01/23 06:32:36;;;;;;;29.33;14.95;;;3.30;99.90;;;;;;5050634;28;20048;-74
2022/01/23 06:35:03;;;;;;;28.38;14.65;;;3.30;99.90;;;;;;5061302;28;20113;-73
2022/01/23 06:37:30;;;;;;;25.95;14.55;;;3.20;99.90;;;;;;5042724;28;20226;-73
2022/01/23 06:39:57;;;;;;;32.25;15.93;;;3.20;99.90;;;;;;5041967;28;20514;-74
2022/01/23 06:42:43;;;;;;;29.88;15.68;;;3.10;99.90;;;;;;5060113;28;20047;-74
2022/01/23 06:45:33;;;;;;;31.52;14.68;;;3.10;99.90;;;;;;5065777;28;20139;-74
2022/01/23 06:48:00;;;;;;;34.13;18.05;;;3.10;99.90;;;;;;5027796;28;20498;-73
2022/01/23 06:50:27;;;;;;;36.63;17.08;;;3.10;99.90;;;;;;5037848;22;20594;-75
2022/01/23 06:52:53;;;;;;;39.20;17.40;;;3.00;99.90;;;;;;5030401;28;20374;-74
2022/01/23 06:55:20;;;;;;;41.83;18.15;;;3.10;99.90;;;;;;5021811;28;20297;-74
2022/01/23 06:57:50;;;;;;;47.67;19.80;;;3.00;99.90;;;;;;5030972;28;20779;-74
2022/01/23 07:00:18;;;;;;;49.72;21.42;;;3.10;99.90;;;;;;5042011;28;20072;-75
2022/01/23 07:03:00;;;;;;;54.55;24.73;;;3.10;99.90;;;;;;5022266;28;20501;-74
2022/01/23 07:05:45;;;;;;;48.08;21.40;;;3.20;99.90;;;;;;5032710;28;20053;-74
2022/01/23 07:08:35;;;;;;;48.08;20.00;;;3.20;99.90;;;;;;5030022;28;20061;-74
2022/01/23 07:11:13;;;;;;;46.10;17.55;;;3.20;99.90;;;;;;5046560;28;20217;-75
2022/01/23 07:13:57;;;;;;;45.75;19.10;;;3.20;99.90;;;;;;5047121;28;20698;-74
2022/01/23 07:16:43;;;;;;;46.50;18.63;;;3.20;99.90;;;;;;5015592;28;20052;-73
2022/01/23 07:19:13;;;;;;;38.80;18.25;;;3.20;99.90;;;;;;5015825;28;20126;-73
2022/01/23 07:21:54;;;;;;;43.67;18.65;;;3.10;99.90;;;;;;5009730;28;20495;-73
2022/01/23 07:24:23;;;;;;;42.33;19.15;;;3.20;99.90;;;;;;5028569;28;20139;-73
2022/01/23 07:26:49;;;;;;;45.13;19.38;;;3.30;99.90;;;;;;5055003;28;20416;-73
2022/01/23 07:29:18;;;;;;;39.53;19.33;;;3.30;99.90;;;;;;5071809;28;20044;-74
2022/01/23 07:31:59;;;;;;;47.83;21.58;;;3.40;99.90;;;;;;5072318;28;20049;-73
2022/01/23 07:34:27;;;;;;;53.15;22.75;;;3.40;99.90;;;;;;5041297;28;20080;-74
2022/01/23 07:36:55;;;;;;;50.50;21.60;;;3.40;99.90;;;;;;5017798;28;20694;-74
2022/01/23 07:39:44;;;;;;;46.75;19.25;;;3.40;99.90;;;;;;5002282;28;20109;-74
2022/01/23 07:42:19;;;;;;;48.38;20.77;;;3.40;99.90;;;;;;5020217;28;20094;-73
2022/01/23 07:44:58;;;;;;;44.33;20.50;;;3.40;99.90;;;;;;5037734;28;20053;-75
2022/01/23 07:47:40;;;;;;;52.20;22.85;;;3.40;99.90;;;;;;5036344;28;20350;-73
2022/01/23 07:50:37;;;;;;;53.70;24.27;;;3.60;99.90;;;;;;5049944;28;20045;-73
2022/01/23 07:53:13;;;;;;;49.70;23.25;;;3.50;99.90;;;;;;5003718;28;20437;-73
2022/01/23 07:55:45;;;;;;;51.20;22.77;;;3.50;99.90;;;;;;5035191;28;20059;-74
2022/01/23 07:58:32;;;;;;;53.75;23.65;;;3.60;99.90;;;;;;5035080;28;20132;-74
2022/01/23 08:01:08;;;;;;;59.20;24.92;;;3.60;99.90;;;;;;5017956;28;20354;-73
2022/01/23 08:03:55;;;;;;;69.50;29.02;;;3.60;99.90;;;;;;5048818;28;20056;-73
2022/01/23 08:06:28;;;;;;;70.95;29.27;;;3.60;99.90;;;;;;5035697;28;20449;-73
2022/01/23 08:09:21;;;;;;;71.07;30.00;;;3.70;99.90;;;;;;5036449;28;20070;-74
2022/01/23 08:11:48;;;;;;;65.60;28.40;;;3.70;99.90;;;;;;5033783;28;20099;-74
2022/01/23 08:14:15;;;;;;;62.28;26.38;;;3.80;99.90;;;;;;5036788;28;20049;-73
2022/01/23 08:16:41;;;;;;;71.25;27.27;;;3.90;99.90;;;;;;5029322;28;20105;-74
2022/01/23 08:19:09;;;;;;;66.45;26.08;;;4.00;99.90;;;;;;5036360;28;20140;-74
2022/01/23 08:21:36;;;;;;;62.33;26.58;;;4.10;99.90;;;;;;5016971;28;20037;-73
2022/01/23 08:24:04;;;;;;;71.78;31.85;;;4.00;99.90;;;;;;5013835;28;20111;-73
2022/01/23 08:26:30;;;;;;;112.35;57.22;;;4.10;99.90;;;;;;5030617;28;20048;-73
2022/01/23 08:28:57;;;;;;;73.63;32.25;;;4.10;99.90;;;;;;5035566;28;20057;-74
2022/01/23 08:31:24;;;;;;;71.10;32.25;;;4.10;99.90;;;;;;5017600;28;20037;-73
2022/01/23 08:33:51;;;;;;;65.57;28.75;;;4.10;99.90;;;;;;5053608;28;20045;-74
2022/01/23 08:36:18;;;;;;;66.15;29.30;;;4.30;99.90;;;;;;5034549;28;20538;-74
2022/01/23 08:38:45;;;;;;;73.13;33.72;;;4.30;99.90;;;;;;5033863;28;20700;-74
2022/01/23 08:41:49;;;;;;;72.93;34.83;;;4.30;99.90;;;;;;5034738;28;20830;-74
2022/01/23 08:44:17;;;;;;;;;;;4.40;99.90;;;;;;5035075;28;20057;-74
2022/01/23 08:46:44;;;;;;;62.40;26.38;;;4.40;99.90;;;;;;5032266;28;19928;-73
2022/01/23 08:49:11;;;;;;;64.85;30.45;;;4.40;99.90;;;;;;5049492;28;20134;-73
2022/01/23 08:51:38;;;;;;;73.35;30.42;;;4.40;99.90;;;;;;5034193;28;20136;-73
2022/01/23 08:54:05;;;;;;;62.63;30.95;;;4.50;99.90;;;;;;5016639;28;20709;-74
2022/01/23 08:56:32;;;;;;;69.10;31.27;;;4.50;99.90;;;;;;5033381;28;20415;-73
2022/01/23 08:58:59;;;;;;;62.45;27.88;;;4.50;99.90;;;;;;5032348;28;20044;-74
2022/01/23 09:01:27;;;;;;;69.25;34.65;;;4.40;99.90;;;;;;5031711;28;20242;-73
2022/01/23 09:03:54;;;;;;;76.60;37.40;;;4.40;99.90;;;;;;5035442;28;20032;-73
2022/01/23 09:06:22;;;;;;;68.20;34.13;;;4.40;99.90;;;;;;5035000;28;20051;-74
2022/01/23 09:08:51;;;;;;;62.50;28.67;;;4.50;99.90;;;;;;5039020;28;20104;-74
2022/01/23 09:14:10;;;;;;;61.03;26.83;;;4.50;99.90;;;;;;5054508;28;20699;-74
2022/01/23 09:16:42;;;;;;;90.82;40.60;;;4.40;99.90;;;;;;4997756;28;20505;-74
2022/01/23 09:19:10;;;;;;;92.78;42.13;;;4.30;99.90;;;;;;5003886;28;20381;-73
2022/01/23 09:21:38;;;;;;;71.32;28.23;;;4.30;99.90;;;;;;5023230;28;20048;-73
2022/01/23 09:24:06;;;;;;;66.60;29.67;;;4.40;99.90;;;;;;5054963;28;20090;-73
2022/01/23 09:26:36;;;;;;;74.38;30.88;;;4.40;99.90;;;;;;5055092;28;20121;-73
2022/01/23 09:29:13;;;;;;;67.25;26.50;;;4.40;99.90;;;;;;5036333;28;20529;-74
2022/01/23 09:31:49;;;;;;;62.50;26.88;;;4.40;99.90;;;;;;5041498;28;20053;-73
2022/01/23 09:34:22;;;;;;;70.65;28.73;;;4.50;99.90;;;;;;5016825;28;20052;-73
2022/01/23 09:36:49;;;;;;;75.63;32.22;;;4.60;99.90;;;;;;5054846;28;20080;-73
2022/01/23 09:39:17;;;;;;;72.40;30.08;;;4.60;99.90;;;;;;5032174;28;20045;-74
2022/01/23 09:42:16;;;;;;;42.90;21.55;;;4.60;99.90;;;;;;5046110;28;20570;-74
2022/01/23 09:44:56;;;;;;;45.00;20.02;;;4.60;99.90;;;;;;5052690;28;20049;-74
2022/01/23 09:47:24;;;;;;;60.10;26.17;;;4.70;99.90;;;;;;5033624;28;20045;-73
2022/01/23 09:49:53;;;;;;;43.70;19.42;;;4.70;99.90;;;;;;5034141;28;20052;-73
2022/01/23 09:52:26;;;;;;;41.70;19.48;;;4.80;99.90;;;;;;5034037;28;20582;-73
2022/01/23 09:54:57;;;;;;;38.08;18.63;;;4.80;99.90;;;;;;5031157;28;20056;-73
2022/01/23 09:57:28;;;;;;;52.05;25.42;;;4.80;99.90;;;;;;5016037;28;20072;-73
2022/01/23 09:59:57;;;;;;;42.28;21.85;;;4.70;99.90;;;;;;5026695;28;20127;-72
2022/01/23 10:02:24;;;;;;;39.67;18.15;;;4.70;99.90;;;;;;5031789;28;20134;-72
2022/01/23 10:04:52;;;;;;;31.08;16.50;;;4.60;99.90;;;;;;5014416;28;20240;-73
2022/01/23 10:07:21;;;;;;;29.98;16.52;;;4.60;99.90;;;;;;5016127;28;20236;-71
2022/01/23 10:09:56;;;;;;;30.55;15.55;;;4.60;99.90;;;;;;5035403;28;20049;-73
2022/01/23 10:12:26;;;;;;;33.50;16.50;;;4.60;99.90;;;;;;5033217;28;20574;-73
2022/01/23 10:14:54;;;;;;;31.33;15.65;;;4.50;99.90;;;;;;5053833;28;20037;-73
2022/01/23 10:17:21;;;;;;;29.92;14.55;;;4.60;99.90;;;;;;5068206;28;20060;-73
2022/01/23 10:19:49;;;;;;;34.00;16.95;;;4.50;99.90;;;;;;5049042;28;20075;-74
2022/01/23 10:22:16;;;;;;;29.40;16.02;;;4.50;99.90;;;;;;5030362;28;20052;-73
2022/01/23 10:24:43;;;;;;;35.28;18.38;;;4.60;99.90;;;;;;5032097;28;20517;-73
2022/01/23 10:27:09;;;;;;;36.47;18.50;;;4.70;99.90;;;;;;5015298;28;20049;-73
2022/01/23 10:29:38;;;;;;;37.65;18.58;;;4.70;99.90;;;;;;4992293;28;20331;-73
2022/01/23 10:32:21;;;;;;;35.03;17.55;;;4.80;99.90;;;;;;5007540;28;20091;-73
2022/01/23 10:34:48;;;;;;;36.90;17.98;;;4.80;99.90;;;;;;5032993;28;20073;-73
2022/01/23 10:37:35;;;;;;;34.17;18.13;;;4.80;99.90;;;;;;5032439;28;20056;-73
2022/01/23 10:40:10;;;;;;;33.80;15.82;;;4.80;99.90;;;;;;5013704;28;20055;-73
2022/01/23 10:48:36;;;;;;;42.13;20.33;;;4.90;99.90;;;;;;5011428;28;20524;-72
2022/01/23 10:51:16;;;;;;;35.38;17.92;;;4.90;99.90;;;;;;5024706;28;20573;-73
2022/01/23 10:54:02;;;;;;;35.55;18.45;;;4.90;99.90;;;;;;5028980;28;20215;-74
2022/01/23 10:56:51;;;;;;;;;;;4.90;99.90;;;;;;5013492;28;20692;-73
2022/01/23 10:59:18;;;;;;;29.52;15.23;;;4.90;99.90;;;;;;5030147;28;20308;-73
2022/01/23 11:02:09;;;;;;;38.25;18.13;;;4.90;99.90;;;;;;5026860;28;20404;-73
2022/01/23 11:04:53;;;;;;;41.15;17.63;;;4.90;99.90;;;;;;5020583;28;20484;-72
2022/01/23 11:07:21;;;;;;;43.03;19.10;;;4.90;99.90;;;;;;5034616;28;20056;-73
2022/01/23 11:10:18;;;;;;;37.13;17.42;;;4.80;99.90;;;;;;5016814;28;20052;-73
2022/01/23 11:18:14;;;;;;;38.13;18.83;;;4.80;99.90;;;;;;5031879;28;20041;-73
2022/01/23 11:20:42;;;;;;;33.63;16.10;;;4.80;99.90;;;;;;5033536;28;20048;-73
2022/01/23 11:23:22;;;;;;;33.53;16.30;;;4.80;99.90;;;;;;5038999;28;20121;-73
2022/01/23 11:25:54;;;;;;;29.55;16.10;;;4.80;99.90;;;;;;5029984;28;20517;-73
2022/01/23 11:28:44;;;;;;;32.47;17.15;;;4.70;99.90;;;;;;5001584;28;20049;-72
2022/01/23 11:31:17;;;;;;;32.80;17.52;;;4.80;99.90;;;;;;5001381;28;20390;-73
2022/01/23 11:33:45;;;;;;;32.97;17.02;;;4.80;99.90;;;;;;5036393;28;20084;-73
2022/01/23 11:36:13;;;;;;;39.88;19.52;;;4.80;99.90;;;;;;5051238;28;20068;-73
2022/01/23 11:38:43;;;;;;;38.35;20.83;;;4.80;99.90;;;;;;5032836;28;20095;-72
2022/01/23 11:54:59;;;;;;;33.42;18.00;;;4.90;99.90;;;;;;5009603;28;20049;-73
2022/01/23 11:57:44;;;;;;;35.70;17.13;;;4.90;99.90;;;;;;4996657;28;20457;-73
2022/01/23 12:00:24;;;;;;;33.47;16.25;;;5.00;99.90;;;;;;4996779;28;20045;-74
2022/01/23 12:03:18;;;;;;;32.22;17.67;;;4.90;99.90;;;;;;5024222;28;20532;-75
2022/01/23 12:06:05;;;;;;;31.70;15.52;;;5.00;99.90;;;;;;5034066;28;20431;-72
2022/01/23 12:08:36;;;;;;;28.52;16.23;;;5.00;99.90;;;;;;5021785;28;20564;-73
2022/01/23 12:11:38;;;;;;;33.42;17.45;;;5.00;99.90;;;;;;5024902;28;20271;-75
2022/01/23 12:17:18;;;;;;;22.48;12.00;;;5.00;99.90;;;;;;5032535;28;20274;-72
2022/01/23 12:19:54;;;;;;;24.67;13.30;;;5.10;99.90;;;;;;5023397;28;20505;-72
2022/01/23 12:22:43;;;;;;;22.73;11.63;;;5.10;99.90;;;;;;5032942;28;20048;-73
2022/01/23 12:25:24;;;;;;;22.63;12.10;;;5.10;99.90;;;;;;5028833;28;20041;-72
2022/01/23 12:28:14;;;;;;;21.23;10.68;;;5.00;99.90;;;;;;5033078;28;20115;-73
2022/01/23 12:30:43;;;;;;;20.25;9.93;;;5.10;99.90;;;;;;5024961;28;20123;-73
2022/01/23 12:33:29;;;;;;;23.40;12.65;;;5.00;99.90;;;;;;5032878;28;20482;-72
2022/01/23 12:36:08;;;;;;;25.83;13.73;;;5.00;99.90;;;;;;5031799;28;20497;-72
2022/01/23 12:38:38;;;;;;;24.65;12.77;;;5.10;99.90;;;;;;5033221;28;20137;-73
2022/01/23 12:41:35;;;;;;;29.20;13.88;;;5.20;99.90;;;;;;5059880;28;20044;-73
2022/01/23 12:44:22;;;;;;;20.17;11.75;;;5.20;99.90;;;;;;5022939;28;20048;-72
2022/01/23 12:46:54;;;;;;;22.48;12.82;;;5.20;99.90;;;;;;5019962;28;20343;-72
2022/01/23 12:49:28;;;;;;;20.08;11.50;;;5.10;99.90;;;;;;5035347;28;20067;-72
2022/01/23 12:52:07;;;;;;;22.95;13.40;;;5.10;99.90;;;;;;5020862;28;20056;-74
2022/01/23 12:54:46;;;;;;;17.25;10.02;;;5.10;99.90;;;;;;5033315;28;20564;-73
2022/01/23 12:57:18;;;;;;;24.10;13.43;;;5.10;99.90;;;;;;5036430;28;20114;-74
2022/01/23 12:59:56;;;;;;;39.67;17.13;;;5.00;99.90;;;;;;5038666;28;20052;-74
2022/01/23 13:02:28;;;;;;;17.40;10.23;;;5.00;99.90;;;;;;5039828;28;20140;-74
2022/01/23 13:04:56;;;;;;;21.65;11.52;;;4.90;99.90;;;;;;5039458;28;20053;-74
2022/01/23 13:07:42;;;;;;;19.35;10.70;;;4.90;99.90;;;;;;5025881;28;20118;-74
2022/01/23 13:12:53;;;;;;;22.15;9.00;;;5.00;99.90;;;;;;5028160;28;20329;-74
2022/01/23 13:15:43;;;;;;;14.68;7.22;;;5.00;99.90;;;;;;5016852;28;20083;-74
2022/01/23 13:18:34;;;;;;;14.20;8.00;;;5.10;99.90;;;;;;5038244;28;20126;-71
2022/01/23 13:32:12;;;;;;;20.40;10.93;;;5.20;99.90;;;;;;5040523;28;20414;-74
2022/01/23 13:34:51;;;;;;;18.10;10.00;;;5.10;99.90;;;;;;5022281;28;20098;-74
2022/01/23 13:37:24;;;;;;;18.75;11.30;;;5.10;99.90;;;;;;5018234;28;20137;-74
2022/01/23 13:39:59;;;;;;;16.17;10.40;;;5.10;99.90;;;;;;5034065;28;20059;-74
2022/01/23 14:00:13;;;;;;;20.25;10.77;;;5.20;99.90;;;;;;5031717;28;20102;-74
2022/01/23 14:02:17;;;;;;;18.08;10.10;;;5.20;99.90;;;;;;5022760;28;20049;-74
2022/01/23 14:04:51;;;;;;;22.73;12.90;;;5.10;99.90;;;;;;5019414;28;20580;-72
2022/01/23 14:07:24;;;;;;;20.48;11.77;;;5.20;99.90;;;;;;5016655;28;20045;-71
2022/01/23 14:09:54;;;;;;;15.90;9.40;;;5.20;99.90;;;;;;5033104;28;20072;-72
2022/01/23 14:12:21;;;;;;;18.80;10.88;;;5.20;99.90;;;;;;5027296;28;20102;-72
2022/01/23 14:15:14;;;;;;;25.95;14.55;;;5.30;99.90;;;;;;5019019;28;20091;-71
2022/01/23 14:17:42;;;;;;;23.75;13.23;;;5.20;99.90;;;;;;5001146;28;20048;-72
2022/01/23 14:20:13;;;;;;;19.02;11.43;;;5.20;99.90;;;;;;5038596;28;20080;-72
2022/01/23 14:22:46;;;;;;;15.60;9.07;;;5.20;99.90;;;;;;5021542;28;20392;-72
2022/01/23 14:25:21;;;;;;;15.10;10.13;;;5.20;99.90;;;;;;5035470;28;20106;-72
2022/01/23 14:28:10;;;;;;;15.20;10.20;;;5.20;99.90;;;;;;5037677;28;20368;-72
2022/01/23 14:30:59;;;;;;;16.35;9.90;;;5.20;99.90;;;;;;5040466;28;20053;-73
2022/01/23 14:33:32;;;;;;;16.02;8.95;;;5.30;99.90;;;;;;5024880;28;20060;-73
2022/01/23 14:36:22;;;;;;;13.40;8.43;;;5.30;99.90;;;;;;5038834;28;20048;-72
2022/01/23 14:39:08;;;;;;;14.35;8.38;;;5.20;99.90;;;;;;5042153;28;20121;-72
2022/01/23 14:41:38;;;;;;;14.05;8.70;;;5.20;99.90;;;;;;5035578;28;20076;-73
2022/01/23 14:44:16;;;;;;;13.65;9.90;;;5.20;99.90;;;;;;5025475;28;20747;-72
2022/01/23 14:46:48;;;;;;;13.07;8.32;;;5.20;99.90;;;;;;5036145;28;20097;-72
2022/01/23 14:49:22;;;;;;;15.30;7.65;;;5.20;99.90;;;;;;5024563;28;20484;-72
2022/01/23 14:51:50;;;;;;;12.40;7.55;;;5.30;99.90;;;;;;5024305;28;20045;-72
2022/01/23 14:54:18;;;;;;;11.63;7.68;;;5.30;99.90;;;;;;5022397;28;20194;-72
2022/01/23 14:56:45;;;;;;;14.05;7.80;;;5.30;99.90;;;;;;5042315;28;20045;-72
2022/01/23 14:59:14;;;;;;;11.95;7.97;;;5.30;99.90;;;;;;5042811;28;20353;-72
2022/01/23 15:01:43;;;;;;;23.73;8.95;;;5.30;99.90;;;;;;5022536;28;20438;-72
2022/01/23 15:04:11;;;;;;;17.88;10.75;;;5.40;99.90;;;;;;5024001;28;20252;-72
2022/01/23 15:06:46;;;;;;;28.35;15.48;;;5.50;99.90;;;;;;5039985;28;20087;-72
2022/01/23 15:09:15;;;;;;;22.92;14.20;;;5.50;99.90;;;;;;5048468;28;20051;-72
2022/01/23 15:11:42;;;;;;;16.85;10.80;;;5.60;99.90;;;;;;5034686;28;20104;-72
2022/01/23 15:14:10;;;;;;;22.25;14.95;;;5.60;99.90;;;;;;5023739;28;20089;-72
2022/01/23 15:16:38;;;;;;;14.45;9.68;;;5.60;99.90;;;;;;5035137;28;20107;-72
2022/01/23 15:19:07;;;;;;;15.75;9.80;;;5.50;99.90;;;;;;5031521;28;20052;-72
2022/01/23 15:21:35;;;;;;;14.48;9.25;;;5.50;99.90;;;;;;5022942;28;20100;-72
2022/01/23 15:24:03;;;;;;;12.75;8.32;;;5.50;99.90;;;;;;5024457;28;20045;-72
2022/01/23 15:26:34;;;;;;;17.15;10.15;;;5.50;99.90;;;;;;5041373;28;20049;-73
2022/01/23 15:29:03;;;;;;;19.77;10.02;;;5.40;99.90;;;;;;5038834;28;20260;-72
2022/01/23 15:31:29;;;;;;;18.27;11.63;;;5.40;99.90;;;;;;5040106;28;20057;-72
2022/01/23 15:33:56;;;;;;;18.15;10.50;;;5.50;99.90;;;;;;5040371;28;20049;-73
2022/01/23 15:36:23;;;;;;;18.65;11.15;;;5.50;99.90;;;;;;5034565;28;20681;-73
2022/01/23 15:38:50;;;;;;;26.20;15.93;;;5.60;99.90;;;;;;5031410;28;20636;-73
2022/01/23 15:41:17;;;;;;;31.30;17.80;;;5.50;99.90;;;;;;5036229;28;20049;-72
2022/01/23 15:43:44;;;;;;;21.52;12.75;;;5.50;99.90;;;;;;5042227;28;20511;-72
2022/01/23 15:46:13;;;;;;;20.55;12.32;;;5.50;99.90;;;;;;5024962;28;20044;-72
2022/01/23 15:48:41;;;;;;;19.40;11.20;;;5.40;99.90;;;;;;5023323;28;20224;-73
2022/01/23 15:51:09;;;;;;;17.80;10.30;;;5.50;99.90;;;;;;5024047;28;20048;-73
2022/01/23 15:53:37;;;;;;;19.55;12.45;;;5.40;99.90;;;;;;5042867;28;20150;-73
2022/01/23 15:56:04;;;;;;;17.90;10.90;;;5.40;99.90;;;;;;5023238;28;20068;-72
2022/01/23 15:58:31;;;;;;;21.95;12.02;;;5.50;99.90;;;;;;5024369;28;20041;-73
2022/01/23 16:00:59;;;;;;;19.63;11.82;;;5.40;99.90;;;;;;5023790;28;20049;-73
2022/01/23 16:03:27;;;;;;;18.80;10.80;;;5.40;99.90;;;;;;5043502;28;20053;-74
2022/01/23 16:05:56;;;;;;;19.80;11.48;;;5.30;99.90;;;;;;5025516;28;20053;-73
2022/01/23 16:08:23;;;;;;;19.20;10.65;;;5.30;99.90;;;;;;5059942;28;20090;-73
2022/01/23 16:10:50;;;;;;;21.50;11.38;;;5.20;99.90;;;;;;5028183;28;20059;-73
2022/01/23 16:13:17;;;;;;;19.63;11.98;;;5.10;99.90;;;;;;5067169;28;20095;-72
2022/01/23 16:15:43;;;;;;;20.90;12.18;;;5.20;99.90;;;;;;5048959;28;20361;-73
2022/01/23 16:18:12;;;;;;;20.38;11.90;;;5.20;99.90;;;;;;5037268;28;20045;-73
2022/01/23 16:20:40;;;;;;;21.77;12.63;;;5.20;99.90;;;;;;5051342;28;20036;-73
2022/01/23 16:23:07;;;;;;;29.13;13.82;;;5.30;99.90;;;;;;5044877;28;20056;-72
2022/01/23 16:25:40;;;;;;;26.23;15.48;;;5.30;99.90;;;;;;5029987;28;20048;-72
2022/01/23 16:28:07;;;;;;;25.17;14.20;;;5.30;99.90;;;;;;5041002;28;20072;-73
2022/01/23 16:30:49;;;;;;;23.88;14.52;;;5.20;99.90;;;;;;5040875;28;20045;-74
2022/01/23 16:33:17;;;;;;;24.42;14.00;;;5.20;99.90;;;;;;5018022;28;20049;-74
2022/01/23 16:35:44;;;;;;;31.00;17.70;;;5.20;99.90;;;;;;5037408;28;20147;-73
2022/01/23 16:38:12;;;;;;;27.58;15.65;;;5.20;99.90;;;;;;5027903;28;20056;-74
2022/01/23 16:40:41;;;;;;;35.58;20.23;;;5.20;99.90;;;;;;5042559;28;20427;-73